sensor_id;sensor_type;location;lat;lon;timestamp;temperature;humidity
65584;DHT22;62116;43.582;1.470;2022-08-01T00:00:12;27.21;48.22
65584;DHT22;62116;43.582;1.470;2022-08-01T00:02:38;27.16;48.46
65584;DHT22;62116;43.582;1.470;2022-08-01T00:05:04;27.19;48.17
65584;DHT22;62116;43.582;1.470;2022-08-01T00:07:36;27.16;48.07
65584;DHT22;62116;43.582;1.470;2022-08-01T00:10:10;27.15;48.02
65584;DHT22;62116;43.582;1.470;2022-08-01T00:12:36;27.18;47.99
65584;DHT22;62116;43.582;1.470;2022-08-01T00:15:03;27.18;48.14
65584;DHT22;62116;43.582;1.470;2022-08-01T00:17:29;27.12;48.08
65584;DHT22;62116;43.582;1.470;2022-08-01T00:19:54;27.14;48.18
65584;DHT22;62116;43.582;1.470;2022-08-01T00:22:19;27.14;48.45
65584;DHT22;62116;43.582;1.470;2022-08-01T00:24:45;27.12;48.89
65584;DHT22;62116;43.582;1.470;2022-08-01T00:27:10;27.11;49.18
65584;DHT22;62116;43.582;1.470;2022-08-01T00:29:35;27.04;49.56
65584;DHT22;62116;43.582;1.470;2022-08-01T00:32:01;27.06;49.52
65584;DHT22;62116;43.582;1.470;2022-08-01T00:34:26;27.05;49.75
65584;DHT22;62116;43.582;1.470;2022-08-01T00:36:52;27.01;49.90
65584;DHT22;62116;43.582;1.470;2022-08-01T00:39:17;27.01;50.08
65584;DHT22;62116;43.582;1.470;2022-08-01T00:41:42;26.95;50.27
65584;DHT22;62116;43.582;1.470;2022-08-01T00:44:08;26.96;50.30
65584;DHT22;62116;43.582;1.470;2022-08-01T00:46:33;26.84;50.71
65584;DHT22;62116;43.582;1.470;2022-08-01T00:48:59;26.82;50.79
65584;DHT22;62116;43.582;1.470;2022-08-01T00:51:26;26.81;50.87
65584;DHT22;62116;43.582;1.470;2022-08-01T00:53:52;26.78;51.04
65584;DHT22;62116;43.582;1.470;2022-08-01T00:56:20;26.75;51.33
65584;DHT22;62116;43.582;1.470;2022-08-01T00:58:45;26.75;51.46
65584;DHT22;62116;43.582;1.470;2022-08-01T01:01:11;26.71;52.05
65584;DHT22;62116;43.582;1.470;2022-08-01T01:03:36;26.72;52.11
65584;DHT22;62116;43.582;1.470;2022-08-01T01:06:35;26.68;52.37
65584;DHT22;62116;43.582;1.470;2022-08-01T01:09:27;26.70;52.56
65584;DHT22;62116;43.582;1.470;2022-08-01T01:17:27;26.60;53.15
65584;DHT22;62116;43.582;1.470;2022-08-01T01:19:55;26.60;53.25
65584;DHT22;62116;43.582;1.470;2022-08-01T01:22:50;26.55;53.49
65584;DHT22;62116;43.582;1.470;2022-08-01T01:28:17;26.50;53.73
65584;DHT22;62116;43.582;1.470;2022-08-01T01:30:49;26.48;53.78
65584;DHT22;62116;43.582;1.470;2022-08-01T01:33:16;26.44;53.96
65584;DHT22;62116;43.582;1.470;2022-08-01T01:35:46;26.41;54.00
65584;DHT22;62116;43.582;1.470;2022-08-01T01:38:20;26.43;54.01
65584;DHT22;62116;43.582;1.470;2022-08-01T01:40:47;26.37;54.13
65584;DHT22;62116;43.582;1.470;2022-08-01T01:43:14;26.38;54.17
65584;DHT22;62116;43.582;1.470;2022-08-01T01:45:41;26.40;54.07
65584;DHT22;62116;43.582;1.470;2022-08-01T01:48:09;26.36;54.32
65584;DHT22;62116;43.582;1.470;2022-08-01T01:50:35;26.28;54.54
65584;DHT22;62116;43.582;1.470;2022-08-01T01:53:02;26.20;54.76
65584;DHT22;62116;43.582;1.470;2022-08-01T01:55:30;26.21;54.70
65584;DHT22;62116;43.582;1.470;2022-08-01T01:57:56;26.13;55.05
65584;DHT22;62116;43.582;1.470;2022-08-01T02:00:23;26.14;54.98
65584;DHT22;62116;43.582;1.470;2022-08-01T02:02:50;26.10;55.17
65584;DHT22;62116;43.582;1.470;2022-08-01T02:05:18;26.06;55.27
65584;DHT22;62116;43.582;1.470;2022-08-01T02:07:44;26.04;55.23
65584;DHT22;62116;43.582;1.470;2022-08-01T02:10:11;26.00;55.42
65584;DHT22;62116;43.582;1.470;2022-08-01T02:12:39;26.00;55.44
65584;DHT22;62116;43.582;1.470;2022-08-01T02:15:07;25.97;55.50
65584;DHT22;62116;43.582;1.470;2022-08-01T02:17:41;25.92;55.60
65584;DHT22;62116;43.582;1.470;2022-08-01T02:20:08;25.92;55.61
65584;DHT22;62116;43.582;1.470;2022-08-01T02:22:40;25.96;55.51
65584;DHT22;62116;43.582;1.470;2022-08-01T02:25:11;25.90;55.67
65584;DHT22;62116;43.582;1.470;2022-08-01T02:27:44;25.89;55.66
65584;DHT22;62116;43.582;1.470;2022-08-01T02:30:12;25.83;55.86
65584;DHT22;62116;43.582;1.470;2022-08-01T02:33:02;25.80;55.85
65584;DHT22;62116;43.582;1.470;2022-08-01T02:35:30;25.79;55.96
65584;DHT22;62116;43.582;1.470;2022-08-01T02:37:57;25.77;56.06
65584;DHT22;62116;43.582;1.470;2022-08-01T02:40:29;25.72;56.24
65584;DHT22;62116;43.582;1.470;2022-08-01T02:42:57;25.66;56.42
65584;DHT22;62116;43.582;1.470;2022-08-01T02:45:25;25.65;56.48
65584;DHT22;62116;43.582;1.470;2022-08-01T02:47:54;25.62;56.53
65584;DHT22;62116;43.582;1.470;2022-08-01T02:50:23;25.61;56.62
65584;DHT22;62116;43.582;1.470;2022-08-01T02:52:50;25.56;56.79
65584;DHT22;62116;43.582;1.470;2022-08-01T02:55:19;25.53;57.03
65584;DHT22;62116;43.582;1.470;2022-08-01T02:57:46;25.49;57.15
65584;DHT22;62116;43.582;1.470;2022-08-01T03:00:14;25.50;57.20
65584;DHT22;62116;43.582;1.470;2022-08-01T03:02:41;25.43;57.23
65584;DHT22;62116;43.582;1.470;2022-08-01T03:05:10;25.47;57.10
65584;DHT22;62116;43.582;1.470;2022-08-01T03:07:36;25.43;57.42
65584;DHT22;62116;43.582;1.470;2022-08-01T03:10:04;25.36;57.62
65584;DHT22;62116;43.582;1.470;2022-08-01T03:12:33;25.31;57.83
65584;DHT22;62116;43.582;1.470;2022-08-01T03:14:59;25.35;57.74
65584;DHT22;62116;43.582;1.470;2022-08-01T03:17:27;25.32;57.66
65584;DHT22;62116;43.582;1.470;2022-08-01T03:19:54;25.29;57.89
65584;DHT22;62116;43.582;1.470;2022-08-01T03:22:23;25.25;58.01
65584;DHT22;62116;43.582;1.470;2022-08-01T03:24:52;25.23;58.10
65584;DHT22;62116;43.582;1.470;2022-08-01T03:27:19;25.12;58.47
65584;DHT22;62116;43.582;1.470;2022-08-01T03:29:47;25.15;58.48
65584;DHT22;62116;43.582;1.470;2022-08-01T03:32:14;25.15;58.44
65584;DHT22;62116;43.582;1.470;2022-08-01T03:34:41;25.14;58.63
65584;DHT22;62116;43.582;1.470;2022-08-01T03:39:52;25.12;58.77
65584;DHT22;62116;43.582;1.470;2022-08-01T03:42:24;25.09;58.85
65584;DHT22;62116;43.582;1.470;2022-08-01T03:44:58;25.15;58.72
65584;DHT22;62116;43.582;1.470;2022-08-01T03:47:28;25.02;59.18
65584;DHT22;62116;43.582;1.470;2022-08-01T03:49:54;24.96;59.38
65584;DHT22;62116;43.582;1.470;2022-08-01T03:52:21;24.92;59.47
65584;DHT22;62116;43.582;1.470;2022-08-01T03:54:49;24.95;59.43
65584;DHT22;62116;43.582;1.470;2022-08-01T03:57:17;24.94;59.54
65584;DHT22;62116;43.582;1.470;2022-08-01T03:59:43;24.87;59.75
65584;DHT22;62116;43.582;1.470;2022-08-01T04:02:09;24.92;59.60
65584;DHT22;62116;43.582;1.470;2022-08-01T04:04:34;24.82;59.95
65584;DHT22;62116;43.582;1.470;2022-08-01T04:07:01;24.78;60.18
65584;DHT22;62116;43.582;1.470;2022-08-01T04:09:32;24.82;60.02
65584;DHT22;62116;43.582;1.470;2022-08-01T04:12:00;24.84;60.16
65584;DHT22;62116;43.582;1.470;2022-08-01T04:14:27;24.81;60.27
65584;DHT22;62116;43.582;1.470;2022-08-01T04:16:54;24.72;60.45
65584;DHT22;62116;43.582;1.470;2022-08-01T04:19:19;24.68;60.67
65584;DHT22;62116;43.582;1.470;2022-08-01T04:21:45;24.63;60.97
65584;DHT22;62116;43.582;1.470;2022-08-01T04:24:13;24.53;61.25
65584;DHT22;62116;43.582;1.470;2022-08-01T04:26:41;24.47;61.43
65584;DHT22;62116;43.582;1.470;2022-08-01T04:29:09;24.47;61.48
65584;DHT22;62116;43.582;1.470;2022-08-01T04:31:37;24.46;61.42
65584;DHT22;62116;43.582;1.470;2022-08-01T04:34:05;24.43;61.70
65584;DHT22;62116;43.582;1.470;2022-08-01T04:36:33;24.43;61.58
65584;DHT22;62116;43.582;1.470;2022-08-01T04:39:01;24.44;61.53
65584;DHT22;62116;43.582;1.470;2022-08-01T04:41:27;24.43;61.64
65584;DHT22;62116;43.582;1.470;2022-08-01T04:43:54;24.40;61.81
65584;DHT22;62116;43.582;1.470;2022-08-01T04:46:21;24.40;61.83
65584;DHT22;62116;43.582;1.470;2022-08-01T04:48:47;24.41;61.80
65584;DHT22;62116;43.582;1.470;2022-08-01T04:51:17;24.26;62.34
65584;DHT22;62116;43.582;1.470;2022-08-01T04:53:44;24.27;62.33
65584;DHT22;62116;43.582;1.470;2022-08-01T04:56:11;24.28;62.31
65584;DHT22;62116;43.582;1.470;2022-08-01T04:58:41;24.28;62.43
65584;DHT22;62116;43.582;1.470;2022-08-01T05:01:07;24.27;62.52
65584;DHT22;62116;43.582;1.470;2022-08-01T05:03:33;24.31;62.43
65584;DHT22;62116;43.582;1.470;2022-08-01T05:05:58;24.34;62.35
65584;DHT22;62116;43.582;1.470;2022-08-01T05:08:24;24.31;62.49
65584;DHT22;62116;43.582;1.470;2022-08-01T05:10:49;24.31;62.50
65584;DHT22;62116;43.582;1.470;2022-08-01T05:13:15;24.33;62.57
65584;DHT22;62116;43.582;1.470;2022-08-01T05:15:40;24.30;62.52
65584;DHT22;62116;43.582;1.470;2022-08-01T05:18:06;24.36;62.49
65584;DHT22;62116;43.582;1.470;2022-08-01T05:20:31;24.34;62.54
65584;DHT22;62116;43.582;1.470;2022-08-01T05:22:57;24.33;62.66
65584;DHT22;62116;43.582;1.470;2022-08-01T05:25:22;24.34;62.64
65584;DHT22;62116;43.582;1.470;2022-08-01T05:27:49;24.27;62.66
65584;DHT22;62116;43.582;1.470;2022-08-01T05:30:14;24.33;62.55
65584;DHT22;62116;43.582;1.470;2022-08-01T05:32:40;24.30;62.70
65584;DHT22;62116;43.582;1.470;2022-08-01T05:35:07;24.41;62.50
65584;DHT22;62116;43.582;1.470;2022-08-01T05:37:32;24.43;62.44
65584;DHT22;62116;43.582;1.470;2022-08-01T05:39:58;24.54;62.06
65584;DHT22;62116;43.582;1.470;2022-08-01T05:42:23;24.57;61.88
65584;DHT22;62116;43.582;1.470;2022-08-01T05:44:49;24.64;61.63
65584;DHT22;62116;43.582;1.470;2022-08-01T05:47:16;24.61;61.71
65584;DHT22;62116;43.582;1.470;2022-08-01T05:49:43;24.61;61.58
65584;DHT22;62116;43.582;1.470;2022-08-01T05:52:08;24.71;61.43
65584;DHT22;62116;43.582;1.470;2022-08-01T05:54:34;24.72;61.27
65584;DHT22;62116;43.582;1.470;2022-08-01T05:56:59;24.72;61.25
65584;DHT22;62116;43.582;1.470;2022-08-01T05:59:30;24.68;61.23
65584;DHT22;62116;43.582;1.470;2022-08-01T06:01:55;24.67;61.36
65584;DHT22;62116;43.582;1.470;2022-08-01T06:04:21;24.63;61.38
65584;DHT22;62116;43.582;1.470;2022-08-01T06:06:46;24.58;61.50
65584;DHT22;62116;43.582;1.470;2022-08-01T06:09:12;24.58;61.51
65584;DHT22;62116;43.582;1.470;2022-08-01T06:11:37;24.56;61.56
65584;DHT22;62116;43.582;1.470;2022-08-01T06:14:03;24.53;61.55
65584;DHT22;62116;43.582;1.470;2022-08-01T06:16:29;24.53;61.62
65584;DHT22;62116;43.582;1.470;2022-08-01T06:18:54;24.53;61.70
65584;DHT22;62116;43.582;1.470;2022-08-01T06:21:20;24.60;61.54
65584;DHT22;62116;43.582;1.470;2022-08-01T06:23:45;24.63;61.12
65584;DHT22;62116;43.582;1.470;2022-08-01T06:26:11;24.72;60.90
65584;DHT22;62116;43.582;1.470;2022-08-01T06:28:36;24.78;60.77
65584;DHT22;62116;43.582;1.470;2022-08-01T06:31:02;24.87;60.54
65584;DHT22;62116;43.582;1.470;2022-08-01T06:33:28;24.87;60.62
65584;DHT22;62116;43.582;1.470;2022-08-01T06:35:53;24.94;60.33
65584;DHT22;62116;43.582;1.470;2022-08-01T06:38:19;25.02;60.16
65584;DHT22;62116;43.582;1.470;2022-08-01T06:40:44;25.12;59.78
65584;DHT22;62116;43.582;1.470;2022-08-01T06:43:10;25.23;59.41
65584;DHT22;62116;43.582;1.470;2022-08-01T06:45:39;25.36;58.96
65584;DHT22;62116;43.582;1.470;2022-08-01T06:48:05;25.53;58.61
65584;DHT22;62116;43.582;1.470;2022-08-01T06:50:31;25.67;58.22
65584;DHT22;62116;43.582;1.470;2022-08-01T06:52:57;25.83;57.88
65584;DHT22;62116;43.582;1.470;2022-08-01T06:55:22;25.97;56.99
65584;DHT22;62116;43.582;1.470;2022-08-01T06:57:52;26.04;56.74
65584;DHT22;62116;43.582;1.470;2022-08-01T07:00:20;26.18;56.23
65584;DHT22;62116;43.582;1.470;2022-08-01T07:02:51;26.27;55.78
65584;DHT22;62116;43.582;1.470;2022-08-01T07:05:17;26.47;55.47
65584;DHT22;62116;43.582;1.470;2022-08-01T07:07:44;26.67;54.59
65584;DHT22;62116;43.582;1.470;2022-08-01T07:10:09;26.85;53.98
65584;DHT22;62116;43.582;1.470;2022-08-01T07:12:35;26.99;53.46
65584;DHT22;62116;43.582;1.470;2022-08-01T07:15:04;27.18;53.12
65584;DHT22;62116;43.582;1.470;2022-08-01T07:17:30;27.34;52.71
65584;DHT22;62116;43.582;1.470;2022-08-01T07:19:55;27.47;52.46
65584;DHT22;62116;43.582;1.470;2022-08-01T07:22:20;27.62;51.54
65584;DHT22;62116;43.582;1.470;2022-08-01T07:24:46;27.85;51.30
65584;DHT22;62116;43.582;1.470;2022-08-01T07:27:11;27.97;51.01
65584;DHT22;62116;43.582;1.470;2022-08-01T07:29:37;28.20;50.50
65584;DHT22;62116;43.582;1.470;2022-08-01T07:32:02;28.45;49.94
65584;DHT22;62116;43.582;1.470;2022-08-01T07:34:28;28.64;49.33
65584;DHT22;62116;43.582;1.470;2022-08-01T07:36:53;28.82;48.52
65584;DHT22;62116;43.582;1.470;2022-08-01T07:39:19;29.02;47.88
65584;DHT22;62116;43.582;1.470;2022-08-01T07:41:45;29.16;47.21
65584;DHT22;62116;43.582;1.470;2022-08-01T07:44:10;29.35;47.08
65584;DHT22;62116;43.582;1.470;2022-08-01T07:46:36;29.43;46.86
65584;DHT22;62116;43.582;1.470;2022-08-01T07:49:01;29.40;46.65
65584;DHT22;62116;43.582;1.470;2022-08-01T07:51:27;29.58;46.91
65584;DHT22;62116;43.582;1.470;2022-08-01T07:53:52;29.70;46.49
65584;DHT22;62116;43.582;1.470;2022-08-01T07:56:17;29.83;46.20
65584;DHT22;62116;43.582;1.470;2022-08-01T07:58:43;29.89;45.96
65584;DHT22;62116;43.582;1.470;2022-08-01T08:01:08;29.91;45.91
65584;DHT22;62116;43.582;1.470;2022-08-01T08:03:34;29.91;45.52
65584;DHT22;62116;43.582;1.470;2022-08-01T08:05:59;29.97;45.58
65584;DHT22;62116;43.582;1.470;2022-08-01T08:08:25;30.06;45.25
65584;DHT22;62116;43.582;1.470;2022-08-01T08:10:50;30.06;45.34
65584;DHT22;62116;43.582;1.470;2022-08-01T08:13:16;29.70;45.76
65584;DHT22;62116;43.582;1.470;2022-08-01T08:15:41;29.53;46.25
65584;DHT22;62116;43.582;1.470;2022-08-01T08:18:07;29.48;46.40
65584;DHT22;62116;43.582;1.470;2022-08-01T08:20:32;29.65;46.00
65584;DHT22;62116;43.582;1.470;2022-08-01T08:22:58;29.81;45.50
65584;DHT22;62116;43.582;1.470;2022-08-01T08:25:24;29.86;45.25
65584;DHT22;62116;43.582;1.470;2022-08-01T08:27:50;29.97;45.31
65584;DHT22;62116;43.582;1.470;2022-08-01T08:30:16;29.91;45.11
65584;DHT22;62116;43.582;1.470;2022-08-01T08:32:41;30.00;44.77
65584;DHT22;62116;43.582;1.470;2022-08-01T08:35:07;29.90;44.83
65584;DHT22;62116;43.582;1.470;2022-08-01T08:37:37;30.01;44.84
65584;DHT22;62116;43.582;1.470;2022-08-01T08:40:03;30.10;44.72
65584;DHT22;62116;43.582;1.470;2022-08-01T08:42:29;30.27;44.12
65584;DHT22;62116;43.582;1.470;2022-08-01T08:44:55;30.37;44.36
65584;DHT22;62116;43.582;1.470;2022-08-01T08:47:21;30.51;43.95
65584;DHT22;62116;43.582;1.470;2022-08-01T08:49:54;30.60;43.95
65584;DHT22;62116;43.582;1.470;2022-08-01T08:52:21;30.45;43.73
65584;DHT22;62116;43.582;1.470;2022-08-01T08:54:48;30.33;43.33
65584;DHT22;62116;43.582;1.470;2022-08-01T08:57:15;30.45;43.53
65584;DHT22;62116;43.582;1.470;2022-08-01T08:59:42;30.49;44.00
65584;DHT22;62116;43.582;1.470;2022-08-01T09:02:09;30.54;44.18
65584;DHT22;62116;43.582;1.470;2022-08-01T09:04:35;30.37;43.90
65584;DHT22;62116;43.582;1.470;2022-08-01T09:07:04;30.40;43.82
65584;DHT22;62116;43.582;1.470;2022-08-01T09:09:29;30.35;44.19
65584;DHT22;62116;43.582;1.470;2022-08-01T09:11:55;30.35;44.07
65584;DHT22;62116;43.582;1.470;2022-08-01T09:14:22;30.30;44.13
65584;DHT22;62116;43.582;1.470;2022-08-01T09:17:00;30.34;44.44
65584;DHT22;62116;43.582;1.470;2022-08-01T09:19:37;30.37;44.35
65584;DHT22;62116;43.582;1.470;2022-08-01T09:22:06;30.30;44.40
65584;DHT22;62116;43.582;1.470;2022-08-01T09:24:33;30.30;44.49
65584;DHT22;62116;43.582;1.470;2022-08-01T09:27:00;30.14;44.61
65584;DHT22;62116;43.582;1.470;2022-08-01T09:29:29;30.13;44.61
65584;DHT22;62116;43.582;1.470;2022-08-01T09:31:55;30.09;44.89
65584;DHT22;62116;43.582;1.470;2022-08-01T09:34:26;29.83;45.38
65584;DHT22;62116;43.582;1.470;2022-08-01T09:36:54;29.81;45.68
65584;DHT22;62116;43.582;1.470;2022-08-01T09:39:28;29.89;45.55
65584;DHT22;62116;43.582;1.470;2022-08-01T09:41:58;29.86;45.54
65584;DHT22;62116;43.582;1.470;2022-08-01T09:44:43;29.72;45.64
65584;DHT22;62116;43.582;1.470;2022-08-01T09:47:09;29.67;45.80
65584;DHT22;62116;43.582;1.470;2022-08-01T09:49:37;29.70;45.83
65584;DHT22;62116;43.582;1.470;2022-08-01T09:52:12;29.73;46.20
65584;DHT22;62116;43.582;1.470;2022-08-01T09:54:38;29.77;45.66
65584;DHT22;62116;43.582;1.470;2022-08-01T09:57:14;29.79;45.67
65584;DHT22;62116;43.582;1.470;2022-08-01T09:59:42;29.83;45.78
65584;DHT22;62116;43.582;1.470;2022-08-01T10:02:12;29.87;45.80
65584;DHT22;62116;43.582;1.470;2022-08-01T10:04:50;29.87;45.93
65584;DHT22;62116;43.582;1.470;2022-08-01T10:07:17;29.74;45.86
65584;DHT22;62116;43.582;1.470;2022-08-01T10:09:43;29.76;45.52
65584;DHT22;62116;43.582;1.470;2022-08-01T10:12:11;29.86;45.55
65584;DHT22;62116;43.582;1.470;2022-08-01T10:14:38;29.89;45.36
65584;DHT22;62116;43.582;1.470;2022-08-01T10:17:07;29.90;45.26
65584;DHT22;62116;43.582;1.470;2022-08-01T10:19:34;29.89;45.45
65584;DHT22;62116;43.582;1.470;2022-08-01T10:22:01;29.83;45.90
65584;DHT22;62116;43.582;1.470;2022-08-01T10:24:29;29.86;45.68
65584;DHT22;62116;43.582;1.470;2022-08-01T10:26:58;29.91;45.64
65584;DHT22;62116;43.582;1.470;2022-08-01T10:29:27;29.93;45.33
65584;DHT22;62116;43.582;1.470;2022-08-01T10:31:55;29.99;45.44
65584;DHT22;62116;43.582;1.470;2022-08-01T10:34:22;29.99;44.66
65584;DHT22;62116;43.582;1.470;2022-08-01T10:36:48;29.99;44.81
65584;DHT22;62116;43.582;1.470;2022-08-01T10:39:13;29.96;45.10
65584;DHT22;62116;43.582;1.470;2022-08-01T10:41:40;29.96;45.34
65584;DHT22;62116;43.582;1.470;2022-08-01T10:44:09;29.96;45.52
65584;DHT22;62116;43.582;1.470;2022-08-01T10:46:39;29.99;45.34
65584;DHT22;62116;43.582;1.470;2022-08-01T10:49:08;30.03;45.03
65584;DHT22;62116;43.582;1.470;2022-08-01T10:51:37;30.06;45.05
65584;DHT22;62116;43.582;1.470;2022-08-01T10:54:06;30.09;45.04
65584;DHT22;62116;43.582;1.470;2022-08-01T10:56:59;30.00;44.94
65584;DHT22;62116;43.582;1.470;2022-08-01T10:59:27;29.97;45.21
65584;DHT22;62116;43.582;1.470;2022-08-01T11:02:00;29.96;44.94
65584;DHT22;62116;43.582;1.470;2022-08-01T11:05:20;29.99;45.31
65584;DHT22;62116;43.582;1.470;2022-08-01T11:10:19;29.97;44.91
65584;DHT22;62116;43.582;1.470;2022-08-01T11:12:46;30.01;44.72
65584;DHT22;62116;43.582;1.470;2022-08-01T11:17:45;29.97;44.89
65584;DHT22;62116;43.582;1.470;2022-08-01T11:20:16;29.90;44.60
65584;DHT22;62116;43.582;1.470;2022-08-01T11:30:39;29.97;44.40
65584;DHT22;62116;43.582;1.470;2022-08-01T11:33:04;29.96;44.18
65584;DHT22;62116;43.582;1.470;2022-08-01T11:35:32;29.97;44.05
65584;DHT22;62116;43.582;1.470;2022-08-01T11:38:26;30.01;43.86
65584;DHT22;62116;43.582;1.470;2022-08-01T11:41:13;30.07;43.51
65584;DHT22;62116;43.582;1.470;2022-08-01T11:44:01;30.11;43.53
65584;DHT22;62116;43.582;1.470;2022-08-01T11:47:08;30.06;44.06
65584;DHT22;62116;43.582;1.470;2022-08-01T11:57:22;30.10;43.84
65584;DHT22;62116;43.582;1.470;2022-08-01T11:59:50;30.13;43.95
65584;DHT22;62116;43.582;1.470;2022-08-01T12:02:30;30.16;42.93
65584;DHT22;62116;43.582;1.470;2022-08-01T12:04:57;30.17;42.64
65584;DHT22;62116;43.582;1.470;2022-08-01T12:07:25;30.20;42.88
65584;DHT22;62116;43.582;1.470;2022-08-01T12:09:59;30.21;42.96
65584;DHT22;62116;43.582;1.470;2022-08-01T12:12:29;30.17;43.21
65584;DHT22;62116;43.582;1.470;2022-08-01T12:14:59;30.18;43.68
65584;DHT22;62116;43.582;1.470;2022-08-01T12:20:16;30.18;42.17
65584;DHT22;62116;43.582;1.470;2022-08-01T12:22:44;30.24;42.19
65584;DHT22;62116;43.582;1.470;2022-08-01T12:25:12;30.17;42.35
65584;DHT22;62116;43.582;1.470;2022-08-01T12:27:40;30.20;42.12
65584;DHT22;62116;43.582;1.470;2022-08-01T12:30:11;30.16;42.56
65584;DHT22;62116;43.582;1.470;2022-08-01T12:32:40;30.17;42.82
65584;DHT22;62116;43.582;1.470;2022-08-01T12:35:14;30.20;42.68
65584;DHT22;62116;43.582;1.470;2022-08-01T12:37:42;30.23;42.53
65584;DHT22;62116;43.582;1.470;2022-08-01T12:40:16;30.21;42.09
65584;DHT22;62116;43.582;1.470;2022-08-01T12:42:48;30.23;41.56
65584;DHT22;62116;43.582;1.470;2022-08-01T12:45:30;30.17;41.46
65584;DHT22;62116;43.582;1.470;2022-08-01T12:47:58;30.23;40.39
65584;DHT22;62116;43.582;1.470;2022-08-01T12:50:26;30.24;40.35
65584;DHT22;62116;43.582;1.470;2022-08-01T12:52:53;30.24;40.62
65584;DHT22;62116;43.582;1.470;2022-08-01T12:55:24;30.27;40.80
65584;DHT22;62116;43.582;1.470;2022-08-01T12:58:12;30.24;40.82
65584;DHT22;62116;43.582;1.470;2022-08-01T13:00:39;30.23;40.86
65584;DHT22;62116;43.582;1.470;2022-08-01T13:03:09;30.24;40.74
65584;DHT22;62116;43.582;1.470;2022-08-01T13:06:11;30.25;40.67
65584;DHT22;62116;43.582;1.470;2022-08-01T13:08:37;30.20;39.23
65584;DHT22;62116;43.582;1.470;2022-08-01T13:11:08;30.20;38.70
65584;DHT22;62116;43.582;1.470;2022-08-01T13:16:05;30.27;39.30
65584;DHT22;62116;43.582;1.470;2022-08-01T13:18:32;30.23;38.90
65584;DHT22;62116;43.582;1.470;2022-08-01T13:23:37;30.17;39.04
65584;DHT22;62116;43.582;1.470;2022-08-01T13:26:03;30.23;39.05
65584;DHT22;62116;43.582;1.470;2022-08-01T13:28:29;30.20;37.83
65584;DHT22;62116;43.582;1.470;2022-08-01T13:30:59;30.25;37.82
65584;DHT22;62116;43.582;1.470;2022-08-01T13:33:26;30.27;38.16
65584;DHT22;62116;43.582;1.470;2022-08-01T13:35:55;30.27;38.57
65584;DHT22;62116;43.582;1.470;2022-08-01T13:38:21;30.31;38.56
65584;DHT22;62116;43.582;1.470;2022-08-01T13:41:06;30.27;38.82
65584;DHT22;62116;43.582;1.470;2022-08-01T13:43:32;30.27;39.19
65584;DHT22;62116;43.582;1.470;2022-08-01T13:45:57;30.34;39.31
65584;DHT22;62116;43.582;1.470;2022-08-01T13:48:23;30.38;39.28
65584;DHT22;62116;43.582;1.470;2022-08-01T13:50:48;30.34;39.32
65584;DHT22;62116;43.582;1.470;2022-08-01T13:53:14;30.34;38.98
65584;DHT22;62116;43.582;1.470;2022-08-01T13:55:39;30.34;38.56
65584;DHT22;62116;43.582;1.470;2022-08-01T13:58:05;30.37;38.00
65584;DHT22;62116;43.582;1.470;2022-08-01T14:00:31;30.40;38.26
65584;DHT22;62116;43.582;1.470;2022-08-01T14:02:57;30.40;38.40
65584;DHT22;62116;43.582;1.470;2022-08-01T14:05:22;30.41;38.00
65584;DHT22;62116;43.582;1.470;2022-08-01T14:07:48;30.41;38.38
65584;DHT22;62116;43.582;1.470;2022-08-01T14:10:13;30.44;38.45
65584;DHT22;62116;43.582;1.470;2022-08-01T14:12:39;30.35;38.65
65584;DHT22;62116;43.582;1.470;2022-08-01T14:15:04;30.37;38.54
65584;DHT22;62116;43.582;1.470;2022-08-01T14:17:30;30.38;39.42
65584;DHT22;62116;43.582;1.470;2022-08-01T14:19:55;30.45;39.28
65584;DHT22;62116;43.582;1.470;2022-08-01T14:22:21;30.45;39.26
65584;DHT22;62116;43.582;1.470;2022-08-01T14:24:47;30.47;39.18
65584;DHT22;62116;43.582;1.470;2022-08-01T14:27:14;30.48;38.87
65584;DHT22;62116;43.582;1.470;2022-08-01T14:29:39;30.47;38.91
65584;DHT22;62116;43.582;1.470;2022-08-01T14:32:05;30.48;38.56
65584;DHT22;62116;43.582;1.470;2022-08-01T14:34:31;30.49;38.67
65584;DHT22;62116;43.582;1.470;2022-08-01T14:36:56;30.49;38.62
65584;DHT22;62116;43.582;1.470;2022-08-01T14:39:21;30.54;38.72
65584;DHT22;62116;43.582;1.470;2022-08-01T14:41:47;30.53;38.68
65584;DHT22;62116;43.582;1.470;2022-08-01T14:44:12;30.61;38.40
65584;DHT22;62116;43.582;1.470;2022-08-01T14:46:37;30.65;37.85
65584;DHT22;62116;43.582;1.470;2022-08-01T14:49:03;30.68;37.89
65584;DHT22;62116;43.582;1.470;2022-08-01T14:51:28;30.68;38.11
65584;DHT22;62116;43.582;1.470;2022-08-01T14:53:58;30.67;38.07
65584;DHT22;62116;43.582;1.470;2022-08-01T14:56:23;30.67;37.18
65584;DHT22;62116;43.582;1.470;2022-08-01T14:58:49;30.69;37.19
65584;DHT22;62116;43.582;1.470;2022-08-01T15:01:14;30.69;36.82
65584;DHT22;62116;43.582;1.470;2022-08-01T15:03:40;30.74;36.49
65584;DHT22;62116;43.582;1.470;2022-08-01T15:06:05;30.71;36.45
65584;DHT22;62116;43.582;1.470;2022-08-01T15:08:31;30.69;36.40
65584;DHT22;62116;43.582;1.470;2022-08-01T15:10:57;30.69;36.34
65584;DHT22;62116;43.582;1.470;2022-08-01T15:13:23;30.67;35.94
65584;DHT22;62116;43.582;1.470;2022-08-01T15:15:48;30.68;35.97
65584;DHT22;62116;43.582;1.470;2022-08-01T15:18:13;30.69;35.64
65584;DHT22;62116;43.582;1.470;2022-08-01T15:20:39;30.74;35.51
65584;DHT22;62116;43.582;1.470;2022-08-01T15:23:04;30.77;35.31
65584;DHT22;62116;43.582;1.470;2022-08-01T15:25:30;30.72;35.05
65584;DHT22;62116;43.582;1.470;2022-08-01T15:27:55;30.77;34.77
65584;DHT22;62116;43.582;1.470;2022-08-01T15:30:21;30.78;34.44
65584;DHT22;62116;43.582;1.470;2022-08-01T15:32:46;30.79;34.33
65584;DHT22;62116;43.582;1.470;2022-08-01T15:35:12;30.79;34.35
65584;DHT22;62116;43.582;1.470;2022-08-01T15:37:37;30.81;34.32
65584;DHT22;62116;43.582;1.470;2022-08-01T15:40:03;30.78;33.99
65584;DHT22;62116;43.582;1.470;2022-08-01T15:42:29;30.79;34.07
65584;DHT22;62116;43.582;1.470;2022-08-01T15:44:54;30.79;34.12
65584;DHT22;62116;43.582;1.470;2022-08-01T15:47:20;30.82;33.79
65584;DHT22;62116;43.582;1.470;2022-08-01T15:49:45;30.82;33.79
65584;DHT22;62116;43.582;1.470;2022-08-01T15:52:11;30.81;33.62
65584;DHT22;62116;43.582;1.470;2022-08-01T15:54:37;30.77;33.60
65584;DHT22;62116;43.582;1.470;2022-08-01T15:57:02;30.72;33.77
65584;DHT22;62116;43.582;1.470;2022-08-01T15:59:28;30.78;33.63
65584;DHT22;62116;43.582;1.470;2022-08-01T16:01:54;30.78;33.25
65584;DHT22;62116;43.582;1.470;2022-08-01T16:04:19;30.84;32.95
65584;DHT22;62116;43.582;1.470;2022-08-01T16:06:45;30.82;33.30
65584;DHT22;62116;43.582;1.470;2022-08-01T16:09:11;30.85;33.09
65584;DHT22;62116;43.582;1.470;2022-08-01T16:11:36;30.92;33.41
65584;DHT22;62116;43.582;1.470;2022-08-01T16:14:02;30.89;33.80